Time;durP1;ratioP1;P1;durP2;ratioP2;P2;SDS_P1;SDS_P2;PMS_P1;PMS_P2;Temp;Humidity;BMP_temperature;BMP_pressure;BME280_temperature;BME280_humidity;BME280_pressure;Samples;Min_cycle;Max_cycle;Signal;HPM_P1;HPM_P2
2021/08/11 00:01:17;;;;;;;3.80;2.67;;;;;;;;;;4994689;28;20233;-82
2021/08/11 00:03:43;;;;;;;3.53;2.50;;;;;;;;;;5010026;28;20564;-82
2021/08/11 00:06:09;;;;;;;3.13;2.83;;;;;;;;;;4986522;28;20938;-82
2021/08/11 00:08:35;;;;;;;3.23;2.90;;;;;;;;;;4993353;28;20254;-82
2021/08/11 00:11:01;;;;;;;2.73;2.53;;;;;;;;;;5009618;28;20206;-82
2021/08/11 00:13:27;;;;;;;2.57;2.37;;;;;;;;;;5009529;28;20190;-82
2021/08/11 00:15:53;;;;;;;3.43;2.87;;;;;;;;;;5008983;28;20179;-82
2021/08/11 00:18:19;;;;;;;3.07;2.77;;;;;;;;;;5009447;28;20179;-82
2021/08/11 00:20:45;;;;;;;2.90;2.70;;;;;;;;;;5008478;28;20226;-82
2021/08/11 00:23:11;;;;;;;3.50;2.90;;;;;;;;;;4993974;28;20183;-83
2021/08/11 00:25:38;;;;;;;2.40;2.20;;;;;;;;;;4991836;28;20195;-83
2021/08/11 00:28:04;;;;;;;3.33;3.03;;;;;;;;;;5009212;28;20187;-82
2021/08/11 00:30:30;;;;;;;3.33;2.60;;;;;;;;;;4992821;28;20183;-82
2021/08/11 00:32:56;;;;;;;3.40;3.10;;;;;;;;;;4992814;28;20179;-82
2021/08/11 00:35:22;;;;;;;3.20;2.90;;;;;;;;;;4990927;28;20559;-82
2021/08/11 00:37:48;;;;;;;3.37;2.70;;;;;;;;;;5005050;28;20500;-82
2021/08/11 00:40:15;;;;;;;3.40;2.97;;;;;;;;;;4992241;28;20218;-82
2021/08/11 00:42:41;;;;;;;4.60;2.60;;;;;;;;;;5008435;28;20202;-82
2021/08/11 00:45:07;;;;;;;3.10;2.77;;;;;;;;;;5008169;28;20205;-82
2021/08/11 00:47:37;;;;;;;3.20;2.90;;;;;;;;;;5005748;28;20179;-82
2021/08/11 00:50:05;;;;;;;5.30;2.77;;;;;;;;;;4993454;28;20167;-83
2021/08/11 00:52:31;;;;;;;3.73;2.83;;;;;;;;;;5008771;28;20270;-82
2021/08/11 00:54:57;;;;;;;5.30;2.90;;;;;;;;;;5009186;28;20250;-82
2021/08/11 00:57:25;;;;;;;3.83;3.03;;;;;;;;;;4993159;28;20229;-82
2021/08/11 00:59:51;;;;;;;3.83;3.00;;;;;;;;;;4993092;28;20202;-82
2021/08/11 01:02:18;;;;;;;3.53;3.10;;;;;;;;;;5008266;28;20189;-82
2021/08/11 01:04:44;;;;;;;3.10;2.83;;;;;;;;;;5007204;28;20179;-82
2021/08/11 01:07:11;;;;;;;2.97;2.67;;;;;;;;;;5007627;28;20203;-82
2021/08/11 01:09:38;;;;;;;3.57;2.87;;;;;;;;;;4991509;28;20265;-82
2021/08/11 01:12:04;;;;;;;4.23;2.70;;;;;;;;;;4991294;28;20187;-82
2021/08/11 01:14:31;;;;;;;3.43;3.13;;;;;;;;;;4991075;28;20187;-82
2021/08/11 01:16:58;;;;;;;3.30;3.00;;;;;;;;;;4984101;28;20586;-81
2021/08/11 01:19:25;;;;;;;2.90;2.60;;;;;;;;;;5006337;28;20247;-82
2021/08/11 01:22:10;;;;;;;3.73;2.83;;;;;;;;;;4991815;28;20249;-82
2021/08/11 01:24:36;;;;;;;3.10;2.80;;;;;;;;;;5003282;28;20187;-82
2021/08/11 01:27:11;;;;;;;3.40;3.07;;;;;;;;;;5007786;28;20183;-82
2021/08/11 01:29:45;;;;;;;3.27;2.97;;;;;;;;;;4990921;28;20237;-82
2021/08/11 01:32:15;;;;;;;3.50;2.93;;;;;;;;;;4991219;28;20234;-81
2021/08/11 01:34:43;;;;;;;3.17;2.90;;;;;;;;;;5006760;28;20238;-82
2021/08/11 01:37:10;;;;;;;2.93;2.63;;;;;;;;;;5007218;28;20718;-82
2021/08/11 01:39:39;;;;;;;2.90;2.70;;;;;;;;;;5006901;28;20985;-82
2021/08/11 01:42:06;;;;;;;4.40;2.90;;;;;;;;;;5007525;28;20178;-82
2021/08/11 01:44:36;;;;;;;3.00;2.57;;;;;;;;;;4988612;28;20244;-81
2021/08/11 01:47:04;;;;;;;2.93;2.47;;;;;;;;;;5005480;28;20187;-82
2021/08/11 01:49:31;;;;;;;2.97;2.70;;;;;;;;;;5006808;28;20191;-82
2021/08/11 01:51:57;;;;;;;3.53;2.90;;;;;;;;;;4991921;28;20266;-81
2021/08/11 01:54:25;;;;;;;3.27;2.80;;;;;;;;;;4990188;28;20219;-82
2021/08/11 01:56:51;;;;;;;4.70;3.10;;;;;;;;;;4991989;28;20179;-82
2021/08/11 01:59:17;;;;;;;3.60;2.90;;;;;;;;;;5002174;28;20254;-81
2021/08/11 02:01:43;;;;;;;3.00;2.70;;;;;;;;;;4989677;28;20203;-82
2021/08/11 02:04:10;;;;;;;4.40;2.50;;;;;;;;;;4992043;28;20213;-82
2021/08/11 02:06:37;;;;;;;3.47;3.00;;;;;;;;;;4991775;28;20187;-82
2021/08/11 02:09:03;;;;;;;3.17;2.87;;;;;;;;;;5007064;28;20179;-82
2021/08/11 02:11:30;;;;;;;3.50;3.17;;;;;;;;;;4992704;28;20253;-82
2021/08/11 02:13:57;;;;;;;2.77;2.40;;;;;;;;;;4990138;28;20186;-82
2021/08/11 02:16:23;;;;;;;4.43;3.37;;;;;;;;;;4987545;28;20175;-82
2021/08/11 02:18:49;;;;;;;3.53;2.87;;;;;;;;;;5006701;28;20246;-82
2021/08/11 02:21:15;;;;;;;2.90;2.70;;;;;;;;;;4988618;28;20200;-81
2021/08/11 02:23:42;;;;;;;6.20;3.10;;;;;;;;;;5006704;28;20498;-81
2021/08/11 02:26:19;;;;;;;4.40;2.50;;;;;;;;;;5006299;28;20265;-82
2021/08/11 02:28:54;;;;;;;3.20;2.97;;;;;;;;;;5005848;28;20163;-82
2021/08/11 02:31:29;;;;;;;2.90;2.60;;;;;;;;;;4989200;28;20193;-81
2021/08/11 02:34:03;;;;;;;5.03;3.00;;;;;;;;;;4989750;28;20178;-81
2021/08/11 02:36:31;;;;;;;3.57;3.03;;;;;;;;;;5005976;28;20595;-82
2021/08/11 02:39:00;;;;;;;3.03;2.70;;;;;;;;;;5006533;28;20179;-81
2021/08/11 02:41:43;;;;;;;3.30;3.00;;;;;;;;;;4987282;28;20191;-82
2021/08/11 02:44:11;;;;;;;3.60;2.83;;;;;;;;;;5006354;28;20269;-81
2021/08/11 02:46:39;;;;;;;3.43;3.03;;;;;;;;;;4990667;28;20629;-82
2021/08/11 02:49:07;;;;;;;4.50;3.13;;;;;;;;;;4991271;28;20177;-81
2021/08/11 02:51:34;;;;;;;3.90;2.90;;;;;;;;;;5005636;28;20210;-81
2021/08/11 02:54:03;;;;;;;5.27;2.70;;;;;;;;;;5006540;28;20666;-81
2021/08/11 02:56:30;;;;;;;3.40;2.73;;;;;;;;;;4990436;28;20229;-82
2021/08/11 02:58:57;;;;;;;3.10;2.80;;;;;;;;;;5006410;28;20194;-81
2021/08/11 03:01:25;;;;;;;5.23;3.37;;;;;;;;;;5006577;28;20199;-81
2021/08/11 03:03:51;;;;;;;2.87;2.57;;;;;;;;;;5006765;28;20570;-81
2021/08/11 03:06:17;;;;;;;3.87;3.47;;;;;;;;;;4989714;28;20195;-81
2021/08/11 03:08:43;;;;;;;3.37;2.70;;;;;;;;;;4989771;28;20274;-81
2021/08/11 03:11:10;;;;;;;2.80;2.60;;;;;;;;;;5005356;28;20630;-82
2021/08/11 03:13:37;;;;;;;5.23;3.10;;;;;;;;;;4992282;28;20195;-82
2021/08/11 03:16:04;;;;;;;3.13;2.83;;;;;;;;;;5005851;28;20724;-82
2021/08/11 03:18:33;;;;;;;3.27;2.97;;;;;;;;;;5006356;28;20851;-81
2021/08/11 03:20:59;;;;;;;3.50;3.10;;;;;;;;;;5005437;28;20211;-81
2021/08/11 03:23:25;;;;;;;3.10;2.80;;;;;;;;;;5006521;28;20187;-81
2021/08/11 03:25:51;;;;;;;3.10;2.80;;;;;;;;;;4992345;28;20184;-82
2021/08/11 03:28:17;;;;;;;3.43;3.10;;;;;;;;;;5006361;28;20187;-82
2021/08/11 03:30:43;;;;;;;3.00;2.67;;;;;;;;;;4989562;28;20195;-82
2021/08/11 03:33:09;;;;;;;4.00;3.10;;;;;;;;;;4990754;28;20191;-82
2021/08/11 03:35:35;;;;;;;3.50;3.03;;;;;;;;;;5006264;28;20194;-82
2021/08/11 03:38:01;;;;;;;3.10;2.90;;;;;;;;;;4991498;28;20179;-82
2021/08/11 03:40:28;;;;;;;3.33;3.10;;;;;;;;;;4990168;28;20677;-81
2021/08/11 03:42:54;;;;;;;7.77;3.73;;;;;;;;;;5009498;28;20599;-82
2021/08/11 03:45:20;;;;;;;3.00;2.80;;;;;;;;;;4994359;28;20233;-81
2021/08/11 03:47:46;;;;;;;3.83;3.30;;;;;;;;;;4993321;28;20278;-81
2021/08/11 03:50:15;;;;;;;4.00;3.07;;;;;;;;;;4994094;28;20808;-82
2021/08/11 03:52:42;;;;;;;5.53;3.13;;;;;;;;;;4993176;28;20194;-82
2021/08/11 03:55:08;;;;;;;3.47;3.17;;;;;;;;;;5009430;28;20223;-82
2021/08/11 03:57:34;;;;;;;3.73;3.43;;;;;;;;;;5009060;28;20187;-82
2021/08/11 04:00:00;;;;;;;3.87;3.30;;;;;;;;;;4994404;28;20306;-82
2021/08/11 04:02:26;;;;;;;4.10;3.60;;;;;;;;;;4994319;28;20179;-82
2021/08/11 04:04:52;;;;;;;3.50;3.20;;;;;;;;;;4992293;28;20663;-82
2021/08/11 04:07:18;;;;;;;4.23;3.10;;;;;;;;;;4991448;28;20295;-81
2021/08/11 04:09:44;;;;;;;3.57;3.23;;;;;;;;;;4994281;28;20187;-82
2021/08/11 04:12:10;;;;;;;3.47;3.17;;;;;;;;;;5008626;28;20716;-81
2021/08/11 04:14:36;;;;;;;4.63;3.20;;;;;;;;;;4994483;28;20179;-81
2021/08/11 04:17:02;;;;;;;6.20;3.47;;;;;;;;;;4994090;28;20608;-82
2021/08/11 04:19:28;;;;;;;3.63;3.30;;;;;;;;;;4993356;28;20617;-82
2021/08/11 04:21:55;;;;;;;3.20;2.90;;;;;;;;;;5008705;28;20190;-82
2021/08/11 04:24:21;;;;;;;5.87;3.27;;;;;;;;;;4992567;28;20297;-82
2021/08/11 04:26:47;;;;;;;4.27;3.80;;;;;;;;;;5008546;28;20502;-82
2021/08/11 04:29:13;;;;;;;3.80;3.50;;;;;;;;;;4994185;28;20650;-82
2021/08/11 04:31:39;;;;;;;3.73;3.40;;;;;;;;;;5008686;28;20188;-82
2021/08/11 04:34:05;;;;;;;4.30;3.90;;;;;;;;;;4987439;28;20249;-84
2021/08/11 04:36:31;;;;;;;4.33;3.80;;;;;;;;;;4990957;28;20523;-83
2021/08/11 04:38:57;;;;;;;4.13;3.37;;;;;;;;;;4993689;28;20313;-84
2021/08/11 04:41:23;;;;;;;3.87;3.30;;;;;;;;;;5008136;28;20207;-84
2021/08/11 04:43:49;;;;;;;4.97;4.47;;;;;;;;;;4994636;28;20486;-84
2021/08/11 04:46:15;;;;;;;4.60;4.20;;;;;;;;;;5008475;28;20202;-83
2021/08/11 04:48:41;;;;;;;3.80;3.50;;;;;;;;;;4992000;28;20508;-84
2021/08/11 04:51:07;;;;;;;4.77;4.37;;;;;;;;;;5008244;28;20183;-83
2021/08/11 04:53:33;;;;;;;6.82;4.20;;;;;;;;;;4991091;28;20497;-83
2021/08/11 04:55:59;;;;;;;4.50;3.90;;;;;;;;;;4992495;28;20666;-83
2021/08/11 04:58:25;;;;;;;4.40;4.00;;;;;;;;;;4992561;28;20736;-83
2021/08/11 05:00:52;;;;;;;5.17;4.70;;;;;;;;;;5005907;28;20199;-82
2021/08/11 05:03:18;;;;;;;5.03;4.27;;;;;;;;;;5007192;28;20599;-82
2021/08/11 05:05:44;;;;;;;4.90;4.40;;;;;;;;;;5006072;28;20186;-83
2021/08/11 05:08:10;;;;;;;4.93;4.43;;;;;;;;;;4989521;28;20203;-82
2021/08/11 05:10:36;;;;;;;6.73;4.50;;;;;;;;;;4989339;28;20373;-82
2021/08/11 05:13:02;;;;;;;4.83;4.30;;;;;;;;;;5005242;28;20776;-83
2021/08/11 05:15:28;;;;;;;4.70;4.20;;;;;;;;;;4987605;28;20218;-83
2021/08/11 05:17:54;;;;;;;4.30;3.90;;;;;;;;;;4988929;28;20191;-83
2021/08/11 05:20:20;;;;;;;4.30;3.90;;;;;;;;;;4992641;28;21061;-82
2021/08/11 05:22:47;;;;;;;4.43;4.03;;;;;;;;;;5006259;28;20192;-83
2021/08/11 05:25:13;;;;;;;3.80;3.50;;;;;;;;;;5000393;28;20194;-83
2021/08/11 05:27:39;;;;;;;5.87;4.10;;;;;;;;;;4990317;28;20203;-83
2021/08/11 05:30:07;;;;;;;4.40;4.00;;;;;;;;;;4991455;28;20190;-83
2021/08/11 05:32:34;;;;;;;4.77;4.37;;;;;;;;;;4993175;28;20179;-83
2021/08/11 05:35:00;;;;;;;4.70;4.30;;;;;;;;;;5007352;28;20206;-83
2021/08/11 05:37:26;;;;;;;4.53;4.13;;;;;;;;;;5005232;28;20195;-83
2021/08/11 05:39:53;;;;;;;3.80;3.50;;;;;;;;;;4991948;28;20625;-83
2021/08/11 05:42:19;;;;;;;5.23;4.60;;;;;;;;;;5008454;28;20612;-83
2021/08/11 05:44:45;;;;;;;4.70;4.27;;;;;;;;;;5009262;28;20198;-83
2021/08/11 05:47:12;;;;;;;4.30;3.90;;;;;;;;;;5010174;28;20583;-83
2021/08/11 05:49:38;;;;;;;3.60;3.30;;;;;;;;;;5008118;28;20522;-82
2021/08/11 05:52:05;;;;;;;4.53;4.13;;;;;;;;;;5008325;28;20551;-82
2021/08/11 05:54:31;;;;;;;4.00;3.60;;;;;;;;;;4991116;28;20230;-81
2021/08/11 05:56:57;;;;;;;4.10;3.80;;;;;;;;;;5006635;28;20210;-81
2021/08/11 05:59:23;;;;;;;3.97;3.67;;;;;;;;;;4999721;28;20199;-82
2021/08/11 06:01:50;;;;;;;4.17;3.77;;;;;;;;;;4999097;28;20199;-82
2021/08/11 06:04:17;;;;;;;5.07;4.50;;;;;;;;;;4987470;28;20325;-82
2021/08/11 06:06:43;;;;;;;3.83;3.53;;;;;;;;;;5007427;28;20207;-81
2021/08/11 06:09:09;;;;;;;4.50;4.07;;;;;;;;;;5006521;28;20189;-81
2021/08/11 06:11:35;;;;;;;4.40;4.00;;;;;;;;;;4989940;28;20187;-82
2021/08/11 06:14:01;;;;;;;4.93;4.43;;;;;;;;;;5007726;28;20590;-81
2021/08/11 06:16:27;;;;;;;4.73;4.17;;;;;;;;;;4989494;28;20228;-81
2021/08/11 06:18:56;;;;;;;9.53;8.63;;;;;;;;;;4990810;28;20192;-83
2021/08/11 06:21:22;;;;;;;11.43;10.23;;;;;;;;;;4982691;28;20286;-83
2021/08/11 06:23:51;;;;;;;10.13;9.13;;;;;;;;;;5007240;28;20186;-83
2021/08/11 06:26:17;;;;;;;12.37;11.07;;;;;;;;;;4993839;28;20179;-84
2021/08/11 06:28:43;;;;;;;16.33;11.90;;;;;;;;;;5008243;28;20793;-84
2021/08/11 06:31:09;;;;;;;20.10;12.00;;;;;;;;;;4993072;28;20175;-85
2021/08/11 06:33:35;;;;;;;12.70;11.00;;;;;;;;;;5008144;28;20179;-81
2021/08/11 06:36:01;;;;;;;20.63;12.67;;;;;;;;;;4990818;28;20181;-84
2021/08/11 06:38:27;;;;;;;13.73;12.17;;;;;;;;;;5007581;28;20552;-84
2021/08/11 06:40:53;;;;;;;13.40;11.00;;;;;;;;;;5005762;28;20215;-83
2021/08/11 06:43:19;;;;;;;16.97;13.67;;;;;;;;;;4991486;28;20208;-83
2021/08/11 06:45:45;;;;;;;15.73;13.03;;;;;;;;;;5007495;28;20278;-83
2021/08/11 06:48:12;;;;;;;16.07;13.00;;;;;;;;;;4992940;28;20202;-83
2021/08/11 06:50:38;;;;;;;14.90;12.00;;;;;;;;;;4992052;28;20182;-83
2021/08/11 06:53:04;;;;;;;13.67;11.87;;;;;;;;;;5007675;28;20273;-83
2021/08/11 06:55:30;;;;;;;15.77;12.97;;;;;;;;;;5007599;28;20235;-83
2021/08/11 06:57:56;;;;;;;16.23;12.90;;;;;;;;;;4998435;28;20186;-83
2021/08/11 07:00:22;;;;;;;17.10;13.80;;;;;;;;;;5008119;28;20317;-83
2021/08/11 07:02:49;;;;;;;20.27;15.40;;;;;;;;;;5007690;28;20185;-83
2021/08/11 07:05:15;;;;;;;22.10;16.77;;;;;;;;;;4986361;28;20235;-83
2021/08/11 07:07:41;;;;;;;18.43;15.93;;;;;;;;;;5007788;28;20292;-83
2021/08/11 07:10:12;;;;;;;22.07;16.27;;;;;;;;;;4992456;28;20285;-84
2021/08/11 07:12:38;;;;;;;24.33;17.07;;;;;;;;;;5007980;28;20196;-83
2021/08/11 07:15:08;;;;;;;20.33;15.80;;;;;;;;;;4991656;28;20643;-83
2021/08/11 07:17:34;;;;;;;18.63;15.07;;;;;;;;;;5011425;28;20225;-83
2021/08/11 07:20:00;;;;;;;26.17;15.20;;;;;;;;;;4991703;28;20206;-83
2021/08/11 07:22:26;;;;;;;23.63;17.97;;;;;;;;;;5011960;28;20186;-83
2021/08/11 07:24:52;;;;;;;27.77;19.53;;;;;;;;;;4995388;28;20183;-84
2021/08/11 07:27:19;;;;;;;27.93;20.27;;;;;;;;;;5011556;28;20214;-83
2021/08/11 07:29:45;;;;;;;27.43;19.90;;;;;;;;;;5011611;28;20554;-83
2021/08/11 07:32:11;;;;;;;28.97;21.10;;;;;;;;;;4995316;28;20180;-84
2021/08/11 07:34:37;;;;;;;29.13;19.60;;;;;;;;;;5010801;28;20178;-83
2021/08/11 07:37:03;;;;;;;34.90;24.10;;;;;;;;;;5011542;28;20282;-83
2021/08/11 07:39:29;;;;;;;29.77;20.77;;;;;;;;;;5011016;28;20182;-83
2021/08/11 07:41:55;;;;;;;27.90;21.20;;;;;;;;;;5011256;28;20207;-83
2021/08/11 07:44:21;;;;;;;28.63;19.67;;;;;;;;;;4995578;28;20549;-84
2021/08/11 07:46:48;;;;;;;30.60;23.30;;;;;;;;;;5007725;28;20187;-83
2021/08/11 07:49:14;;;;;;;36.27;24.57;;;;;;;;;;5010907;28;20183;-83
2021/08/11 07:51:40;;;;;;;33.73;24.37;;;;;;;;;;4994732;28;20216;-83
2021/08/11 07:54:06;;;;;;;33.67;25.20;;;;;;;;;;5010418;28;20297;-83
2021/08/11 07:56:32;;;;;;;36.60;23.40;;;;;;;;;;4996131;28;20291;-83
2021/08/11 07:58:58;;;;;;;33.53;23.77;;;;;;;;;;5011918;28;20270;-84
2021/08/11 08:01:25;;;;;;;30.77;22.10;;;;;;;;;;5011909;28;20203;-83
2021/08/11 08:03:51;;;;;;;35.83;23.83;;;;;;;;;;5012507;28;20179;-83
2021/08/11 08:06:17;;;;;;;33.90;24.40;;;;;;;;;;5011379;28;20330;-83
2021/08/11 08:08:43;;;;;;;33.77;23.23;;;;;;;;;;5011164;28;20183;-83
2021/08/11 08:11:09;;;;;;;35.83;25.07;;;;;;;;;;5009892;28;20201;-84
2021/08/11 08:13:35;;;;;;;38.57;25.43;;;;;;;;;;4988526;28;20202;-83
2021/08/11 08:16:01;;;;;;;35.30;24.30;;;;;;;;;;5009991;28;20693;-83
2021/08/11 08:18:27;;;;;;;34.43;24.80;;;;;;;;;;4993500;28;20195;-83
2021/08/11 08:20:54;;;;;;;39.63;25.07;;;;;;;;;;4994391;28;20705;-83
2021/08/11 08:23:20;;;;;;;32.57;25.50;;;;;;;;;;5010209;28;20606;-83
2021/08/11 08:25:47;;;;;;;35.17;24.93;;;;;;;;;;5009664;28;20175;-83
2021/08/11 08:28:13;;;;;;;38.47;25.63;;;;;;;;;;5010520;28;20183;-85
2021/08/11 08:30:39;;;;;;;33.63;25.27;;;;;;;;;;4993411;28;20215;-83
2021/08/11 08:33:05;;;;;;;34.67;25.37;;;;;;;;;;5009566;28;20269;-83
2021/08/11 08:35:31;;;;;;;35.77;25.40;;;;;;;;;;4994393;28;20194;-83
2021/08/11 08:37:58;;;;;;;37.53;24.13;;;;;;;;;;5010084;28;20282;-83
2021/08/11 08:40:29;;;;;;;36.20;24.27;;;;;;;;;;5009154;28;20236;-83
2021/08/11 08:42:55;;;;;;;32.73;23.83;;;;;;;;;;5011310;28;20598;-82
2021/08/11 08:45:21;;;;;;;30.20;23.80;;;;;;;;;;4992973;28;20635;-83
2021/08/11 08:47:49;;;;;;;35.53;25.27;;;;;;;;;;4992724;28;20190;-83
2021/08/11 08:50:19;;;;;;;34.07;25.40;;;;;;;;;;5008931;28;20261;-83
2021/08/11 08:52:45;;;;;;;29.20;23.37;;;;;;;;;;4995224;28;20770;-82
2021/08/11 08:55:11;;;;;;;31.23;23.73;;;;;;;;;;4991951;28;20369;-82
2021/08/11 08:57:37;;;;;;;29.23;23.07;;;;;;;;;;4993679;28;20180;-82
2021/08/11 09:00:08;;;;;;;28.43;22.90;;;;;;;;;;5009000;28;20210;-82
2021/08/11 09:02:38;;;;;;;29.03;22.33;;;;;;;;;;4992189;28;20176;-82
2021/08/11 09:05:04;;;;;;;27.97;22.63;;;;;;;;;;5005554;28;20187;-82
2021/08/11 09:07:30;;;;;;;27.33;21.63;;;;;;;;;;5008772;28;20203;-82
2021/08/11 09:09:56;;;;;;;30.80;21.80;;;;;;;;;;5008785;28;20218;-84
2021/08/11 09:12:23;;;;;;;25.83;21.07;;;;;;;;;;5008885;28;20179;-84
2021/08/11 09:14:50;;;;;;;25.47;20.33;;;;;;;;;;4992715;28;20189;-84
2021/08/11 09:17:36;;;;;;;23.60;20.07;;;;;;;;;;5009009;28;20225;-84
2021/08/11 09:20:03;;;;;;;23.33;19.33;;;;;;;;;;4996159;28;20176;-84
2021/08/11 09:22:43;;;;;;;24.27;19.83;;;;;;;;;;4992439;28;21100;-84
2021/08/11 09:25:10;;;;;;;22.97;20.10;;;;;;;;;;4989156;28;20182;-84
2021/08/11 09:27:40;;;;;;;25.27;21.37;;;;;;;;;;4998328;28;20180;-84
2021/08/11 09:30:17;;;;;;;22.83;20.43;;;;;;;;;;4992371;28;20182;-84
2021/08/11 09:32:49;;;;;;;21.40;18.80;;;;;;;;;;5008802;28;20307;-83
2021/08/11 09:35:17;;;;;;;22.67;18.37;;;;;;;;;;5008163;28;20222;-84
2021/08/11 09:37:44;;;;;;;22.07;17.70;;;;;;;;;;5007791;28;20191;-84
2021/08/11 09:40:17;;;;;;;21.67;18.53;;;;;;;;;;4991674;28;20214;-84
2021/08/11 09:42:44;;;;;;;20.87;18.67;;;;;;;;;;4993779;28;20178;-84
2021/08/11 09:45:11;;;;;;;23.50;18.20;;;;;;;;;;5008163;28;20207;-84
2021/08/11 09:47:38;;;;;;;21.23;18.37;;;;;;;;;;5008502;28;20183;-84
2021/08/11 09:50:06;;;;;;;19.17;17.20;;;;;;;;;;4992813;28;20630;-85
2021/08/11 09:52:53;;;;;;;23.67;18.37;;;;;;;;;;5012627;28;20206;-84
2021/08/11 09:55:19;;;;;;;22.20;18.27;;;;;;;;;;5011600;28;20230;-85
2021/08/11 09:57:46;;;;;;;22.90;18.13;;;;;;;;;;5005815;28;21190;-85
2021/08/11 10:00:14;;;;;;;23.40;19.20;;;;;;;;;;5008003;28;20203;-84
2021/08/11 10:02:43;;;;;;;22.17;17.80;;;;;;;;;;5008337;28;20191;-84
2021/08/11 10:05:10;;;;;;;22.27;19.98;;;;;;;;;;5003517;28;20424;-84
2021/08/11 10:07:37;;;;;;;18.10;15.83;;;;;;;;;;5007973;28;20201;-84
2021/08/11 10:10:03;;;;;;;19.60;17.63;;;;;;;;;;4992357;28;20185;-85
2021/08/11 10:12:30;;;;;;;19.43;17.23;;;;;;;;;;4991692;28;20175;-84
2021/08/11 10:15:00;;;;;;;17.13;15.07;;;;;;;;;;4990410;28;20189;-84
2021/08/11 10:17:29;;;;;;;18.93;15.37;;;;;;;;;;4993880;28;20194;-84
2021/08/11 10:19:57;;;;;;;19.67;15.10;;;;;;;;;;4993087;28;20222;-84
2021/08/11 10:22:23;;;;;;;17.03;15.10;;;;;;;;;;4993695;28;20642;-84
2021/08/11 10:24:52;;;;;;;13.43;12.13;;;;;;;;;;4994278;28;20183;-84
2021/08/11 10:27:19;;;;;;;12.47;11.13;;;;;;;;;;4994862;28;20187;-84
2021/08/11 10:29:46;;;;;;;13.30;11.07;;;;;;;;;;4993307;28;20674;-84
2021/08/11 10:32:12;;;;;;;11.83;10.63;;;;;;;;;;4993997;28;20560;-84
2021/08/11 10:34:39;;;;;;;15.57;12.53;;;;;;;;;;4993474;28;20825;-84
2021/08/11 10:37:05;;;;;;;13.70;11.63;;;;;;;;;;4995342;28;20597;-85
2021/08/11 10:39:32;;;;;;;11.70;10.47;;;;;;;;;;4993455;28;20187;-84
2021/08/11 10:42:02;;;;;;;10.97;9.87;;;;;;;;;;4993106;28;20216;-84
2021/08/11 10:44:28;;;;;;;13.57;12.07;;;;;;;;;;4994899;28;20243;-84
2021/08/11 10:46:56;;;;;;;12.50;11.20;;;;;;;;;;4993695;28;20538;-85
2021/08/11 10:49:24;;;;;;;13.17;11.87;;;;;;;;;;4985762;28;20543;-85
2021/08/11 10:51:51;;;;;;;12.40;11.17;;;;;;;;;;4992080;28;20189;-84
2021/08/11 10:54:18;;;;;;;12.23;11.03;;;;;;;;;;5001655;28;20258;-84
2021/08/11 10:56:45;;;;;;;12.67;10.77;;;;;;;;;;4978566;28;20241;-84
2021/08/11 10:59:24;;;;;;;10.80;9.67;;;;;;;;;;4976652;28;20179;-84
2021/08/11 11:01:51;;;;;;;11.50;9.67;;;;;;;;;;4977856;28;20207;-83
2021/08/11 11:04:35;;;;;;;10.47;9.47;;;;;;;;;;4978619;28;20269;-84
2021/08/11 11:07:11;;;;;;;11.10;9.90;;;;;;;;;;4976447;28;20661;-84
2021/08/11 11:09:41;;;;;;;11.60;10.37;;;;;;;;;;4987691;28;20180;-84
2021/08/11 11:12:19;;;;;;;11.07;9.90;;;;;;;;;;4998107;28;20625;-83
2021/08/11 11:14:45;;;;;;;9.83;8.83;;;;;;;;;;4997068;28;20186;-83
2021/08/11 11:17:12;;;;;;;9.53;7.57;;;;;;;;;;4995984;28;20539;-84
2021/08/11 11:19:57;;;;;;;7.73;6.83;;;;;;;;;;4989564;28;20198;-84
2021/08/11 11:22:35;;;;;;;8.30;7.50;;;;;;;;;;4995584;28;20246;-84
2021/08/11 11:25:01;;;;;;;7.57;6.47;;;;;;;;;;4996778;28;20289;-84
2021/08/11 11:27:40;;;;;;;7.40;6.70;;;;;;;;;;4995833;28;20586;-83
2021/08/11 11:30:07;;;;;;;7.33;6.00;;;;;;;;;;4996013;28;20314;-83
2021/08/11 11:32:33;;;;;;;6.70;6.10;;;;;;;;;;4997279;28;20788;-83
2021/08/11 11:35:14;;;;;;;5.60;5.10;;;;;;;;;;4989890;28;20191;-83
2021/08/11 11:37:40;;;;;;;5.87;5.10;;;;;;;;;;4975769;28;20278;-83
2021/08/11 11:40:07;;;;;;;7.40;5.37;;;;;;;;;;4990565;28;20262;-83
2021/08/11 11:42:33;;;;;;;6.73;6.10;;;;;;;;;;4995060;28;20193;-82
2021/08/11 11:45:00;;;;;;;6.80;6.20;;;;;;;;;;4996199;28;20186;-83
2021/08/11 11:47:42;;;;;;;6.47;5.87;;;;;;;;;;5012048;28;20174;-82
2021/08/11 11:50:25;;;;;;;7.60;6.90;;;;;;;;;;4998473;28;20174;-83
2021/08/11 11:53:01;;;;;;;6.97;5.80;;;;;;;;;;4997308;28;20185;-83
2021/08/11 11:55:30;;;;;;;7.30;5.83;;;;;;;;;;4994730;28;20223;-83
2021/08/11 11:57:57;;;;;;;6.27;5.67;;;;;;;;;;4995083;28;20193;-83
2021/08/11 12:00:24;;;;;;;9.37;6.33;;;;;;;;;;4993731;28;20290;-83
2021/08/11 12:02:53;;;;;;;7.97;5.40;;;;;;;;;;4993631;28;20190;-83
2021/08/11 12:05:20;;;;;;;7.13;6.43;;;;;;;;;;4991201;28;20184;-83
2021/08/11 12:07:46;;;;;;;7.17;6.10;;;;;;;;;;4993660;28;20673;-83
2021/08/11 12:10:31;;;;;;;6.40;5.80;;;;;;;;;;4993493;28;20183;-83
2021/08/11 12:13:02;;;;;;;5.70;5.20;;;;;;;;;;5010161;28;20175;-83
2021/08/11 12:15:35;;;;;;;6.13;5.53;;;;;;;;;;5010232;28;20171;-83
2021/08/11 12:18:15;;;;;;;5.67;5.17;;;;;;;;;;5010136;28;20217;-83
2021/08/11 12:20:41;;;;;;;5.80;5.30;;;;;;;;;;4993547;28;20314;-83
2021/08/11 12:23:27;;;;;;;5.10;4.70;;;;;;;;;;5010026;28;20227;-82
2021/08/11 12:25:57;;;;;;;5.27;4.73;;;;;;;;;;5009685;28;20854;-83
2021/08/11 12:28:24;;;;;;;5.50;4.83;;;;;;;;;;4990415;28;20214;-83
2021/08/11 12:31:13;;;;;;;5.27;4.77;;;;;;;;;;5009036;28;20191;-83
2021/08/11 12:33:40;;;;;;;5.47;4.73;;;;;;;;;;4988494;28;20273;-83
2021/08/11 12:36:17;;;;;;;4.40;4.00;;;;;;;;;;4994055;28;20555;-83
2021/08/11 12:38:43;;;;;;;4.40;4.00;;;;;;;;;;4991770;28;20199;-83
2021/08/11 12:41:15;;;;;;;5.00;4.07;;;;;;;;;;5008910;28;20830;-83
2021/08/11 12:43:42;;;;;;;4.33;3.93;;;;;;;;;;4993215;28;20179;-82
2021/08/11 12:46:09;;;;;;;5.57;3.83;;;;;;;;;;4990613;28;20255;-83
2021/08/11 12:48:36;;;;;;;4.93;4.10;;;;;;;;;;4992699;28;20230;-82
2021/08/11 12:51:04;;;;;;;3.90;3.60;;;;;;;;;;5004207;28;20200;-82
2021/08/11 12:53:38;;;;;;;4.43;3.83;;;;;;;;;;4992189;28;20660;-83
2021/08/11 12:56:09;;;;;;;5.87;4.10;;;;;;;;;;4993099;28;20241;-84
2021/08/11 12:59:04;;;;;;;6.23;3.73;;;;;;;;;;4994497;28;20180;-85
2021/08/11 13:01:35;;;;;;;3.97;3.67;;;;;;;;;;4967564;28;20277;-82
2021/08/11 13:04:01;;;;;;;4.20;3.80;;;;;;;;;;4992731;28;20246;-83
2021/08/11 13:06:34;;;;;;;5.17;4.40;;;;;;;;;;5008049;28;20210;-82
2021/08/11 13:09:01;;;;;;;4.90;4.40;;;;;;;;;;4993370;28;20945;-83
2021/08/11 13:11:45;;;;;;;4.97;4.17;;;;;;;;;;5009247;28;20187;-83
2021/08/11 13:14:11;;;;;;;4.50;4.10;;;;;;;;;;4992716;28;20557;-83
2021/08/11 13:16:37;;;;;;;5.67;4.30;;;;;;;;;;5009201;28;20594;-83
2021/08/11 13:19:17;;;;;;;4.87;4.47;;;;;;;;;;4976274;28;20246;-83
2021/08/11 13:21:43;;;;;;;4.80;4.03;;;;;;;;;;5006597;28;20439;-83
2021/08/11 13:24:09;;;;;;;4.47;4.07;;;;;;;;;;4990475;28;20639;-82
2021/08/11 13:26:35;;;;;;;4.30;4.00;;;;;;;;;;5005444;28;20318;-86
2021/08/11 13:29:01;;;;;;;7.40;3.70;;;;;;;;;;4995659;28;20253;-83
2021/08/11 13:31:27;;;;;;;4.27;3.87;;;;;;;;;;4994523;28;20182;-83
2021/08/11 13:33:53;;;;;;;5.07;4.23;;;;;;;;;;4993385;28;20192;-82
2021/08/11 13:36:19;;;;;;;5.10;4.40;;;;;;;;;;4989708;28;20523;-83
2021/08/11 13:38:45;;;;;;;4.60;3.87;;;;;;;;;;4992613;28;20187;-83
2021/08/11 13:41:11;;;;;;;5.43;3.93;;;;;;;;;;4994921;28;20551;-83
2021/08/11 13:43:40;;;;;;;4.47;4.07;;;;;;;;;;4993092;28;20275;-82
2021/08/11 13:46:06;;;;;;;4.73;3.63;;;;;;;;;;4993978;28;20179;-82
2021/08/11 13:48:32;;;;;;;6.37;4.40;;;;;;;;;;4994094;28;20175;-82
2021/08/11 13:50:58;;;;;;;4.63;4.23;;;;;;;;;;5009858;28;20521;-82
2021/08/11 13:53:24;;;;;;;4.83;4.33;;;;;;;;;;4991500;28;20999;-82
2021/08/11 13:55:50;;;;;;;5.40;4.90;;;;;;;;;;4993351;28;20251;-82
2021/08/11 13:58:16;;;;;;;4.40;4.00;;;;;;;;;;4992137;28;20259;-82
2021/08/11 14:00:42;;;;;;;4.70;4.20;;;;;;;;;;4991638;28;20310;-82
2021/08/11 14:03:10;;;;;;;4.57;4.27;;;;;;;;;;4989594;28;20235;-83
2021/08/11 14:05:36;;;;;;;5.53;4.87;;;;;;;;;;4986959;28;20235;-85
2021/08/11 14:08:02;;;;;;;6.23;5.63;;;;;;;;;;4987742;28;20220;-82
2021/08/11 14:10:28;;;;;;;5.10;4.70;;;;;;;;;;4991618;28;20200;-82
2021/08/11 14:12:54;;;;;;;5.27;4.80;;;;;;;;;;5008726;28;20587;-83
2021/08/11 14:15:20;;;;;;;6.20;4.77;;;;;;;;;;4999805;28;20531;-83
2021/08/11 14:17:46;;;;;;;5.17;4.77;;;;;;;;;;4991972;28;20196;-82
2021/08/11 14:20:12;;;;;;;5.70;5.20;;;;;;;;;;4991485;28;20190;-83
2021/08/11 14:22:38;;;;;;;6.03;4.80;;;;;;;;;;4991819;28;20183;-82
2021/08/11 14:25:04;;;;;;;5.90;5.30;;;;;;;;;;4991682;28;20177;-83
2021/08/11 14:27:30;;;;;;;5.27;4.87;;;;;;;;;;4987569;28;20200;-85
2021/08/11 14:29:56;;;;;;;4.67;4.27;;;;;;;;;;4985852;28;20255;-84
2021/08/11 14:32:22;;;;;;;5.43;4.93;;;;;;;;;;4993343;28;20181;-84
2021/08/11 14:34:48;;;;;;;5.70;5.20;;;;;;;;;;4978659;28;20196;-84
2021/08/11 14:37:14;;;;;;;6.43;4.57;;;;;;;;;;4988435;28;20185;-84